createdAt,value
2023-05-14T00:00:34.946Z,956.2446
2023-05-14T00:01:36.789Z,956.2285
2023-05-14T00:02:38.716Z,956.2246
2023-05-14T00:03:40.539Z,956.2146
2023-05-14T00:04:42.294Z,956.2054
2023-05-14T00:05:44.168Z,956.1954
2023-05-14T00:06:45.980Z,956.1938
2023-05-14T00:07:47.823Z,956.1908
2023-05-14T00:08:49.662Z,956.1915
2023-05-14T00:09:51.494Z,956.1854
2023-05-14T00:10:53.361Z,956.1885
2023-05-14T00:11:55.187Z,956.1785
2023-05-14T00:12:57.035Z,956.1769
2023-05-14T00:13:58.897Z,956.1785
2023-05-14T00:15:00.695Z,956.1708
2023-05-14T00:16:02.578Z,956.1653
2023-05-14T00:17:04.402Z,956.1531
2023-05-14T00:18:06.326Z,956.1423
2023-05-14T00:19:08.082Z,956.1346
2023-05-14T00:20:09.935Z,956.1323
2023-05-14T00:21:11.764Z,956.1339
2023-05-14T00:22:13.593Z,956.1270
2023-05-14T00:23:15.434Z,956.1285
2023-05-14T00:24:17.269Z,956.1354
2023-05-14T00:25:19.105Z,956.1346
2023-05-14T00:26:20.988Z,956.1308
2023-05-14T00:27:22.807Z,956.1238
2023-05-14T00:28:24.637Z,956.1177
2023-05-14T00:29:26.478Z,956.1077
2023-05-14T00:30:28.310Z,956.0984
2023-05-14T00:31:30.165Z,956.0939
2023-05-14T00:32:32.033Z,956.0977
2023-05-14T00:33:33.841Z,956.1000
2023-05-14T00:34:35.687Z,956.0961
2023-05-14T00:35:37.509Z,956.0969
2023-05-14T00:36:39.392Z,956.0862
2023-05-14T00:37:41.196Z,956.0770
2023-05-14T00:38:43.051Z,956.0739
2023-05-14T00:39:44.887Z,956.0700
2023-05-14T00:40:46.712Z,956.0685
2023-05-14T00:41:48.563Z,956.0546
2023-05-14T00:42:50.416Z,956.0592
2023-05-14T00:43:52.244Z,956.0585
2023-05-14T00:44:54.119Z,956.0569
2023-05-14T00:45:55.948Z,956.0562
2023-05-14T00:46:57.804Z,956.0646
2023-05-14T00:47:59.721Z,956.0662
2023-05-14T00:49:01.437Z,956.0638
2023-05-14T00:50:03.273Z,956.0692
2023-05-14T00:51:05.159Z,956.0685
2023-05-14T00:52:06.970Z,956.0715
2023-05-14T00:53:08.817Z,956.0646
2023-05-14T00:54:10.638Z,956.0654
2023-05-14T00:55:12.482Z,956.0538
2023-05-14T00:56:14.322Z,956.0562
2023-05-14T00:57:16.193Z,956.0469
2023-05-14T00:58:18.052Z,956.0453
2023-05-14T00:59:19.864Z,956.0392
2023-05-14T01:00:21.867Z,956.0377
2023-05-14T01:01:23.547Z,956.0477
2023-05-14T01:02:25.457Z,956.0569
2023-05-14T01:03:27.405Z,956.0670
2023-05-14T01:04:29.062Z,956.0823
2023-05-14T01:05:30.868Z,956.0900
2023-05-14T01:06:32.707Z,956.1008
2023-05-14T01:07:34.548Z,956.1100
2023-05-14T01:08:36.399Z,956.1108
2023-05-14T01:09:38.251Z,956.1115
2023-05-14T01:10:40.086Z,956.0977
2023-05-14T01:11:41.908Z,956.0877
2023-05-14T01:12:43.754Z,956.0662
2023-05-14T01:13:45.597Z,956.0530
2023-05-14T01:14:47.453Z,956.0431
2023-05-14T01:15:49.302Z,956.0277
2023-05-14T01:16:51.170Z,956.0131
2023-05-14T01:17:52.970Z,956.0046
2023-05-14T01:18:54.897Z,956.0000
2023-05-14T01:19:56.635Z,955.9962
2023-05-14T01:20:58.529Z,956.0015
2023-05-14T01:22:00.335Z,956.0062
2023-05-14T01:23:02.142Z,956.0070
2023-05-14T01:24:04.017Z,956.0100
2023-05-14T01:25:05.837Z,955.9992
2023-05-14T01:26:07.677Z,955.9892
2023-05-14T01:27:09.515Z,955.9700
2023-05-14T01:28:11.361Z,955.9577
2023-05-14T01:29:13.181Z,955.9492
2023-05-14T01:30:15.037Z,955.9462
2023-05-14T01:31:16.895Z,955.9462
2023-05-14T01:32:18.777Z,955.9423
2023-05-14T01:33:20.565Z,955.9470
2023-05-14T01:34:22.391Z,955.9523
2023-05-14T01:35:24.247Z,955.9431
2023-05-14T01:36:26.097Z,955.9400
2023-05-14T01:37:27.934Z,955.9338
2023-05-14T01:38:29.779Z,955.9185
2023-05-14T01:39:31.656Z,955.8915
2023-05-14T01:40:33.487Z,955.8869
2023-05-14T01:41:35.281Z,955.8808
2023-05-14T01:42:37.122Z,955.8677
2023-05-14T01:43:38.986Z,955.8685
2023-05-14T01:44:40.824Z,955.8700
2023-05-14T01:45:42.732Z,955.8708
2023-05-14T01:46:44.496Z,955.8661
2023-05-14T01:47:46.372Z,955.8685
2023-05-14T01:48:48.176Z,955.8677
2023-05-14T01:49:50.027Z,955.8677
2023-05-14T01:50:51.867Z,955.8685
2023-05-14T01:51:53.719Z,955.8746
2023-05-14T01:52:55.546Z,955.8800
2023-05-14T01:53:57.400Z,955.8762
2023-05-14T01:54:59.224Z,955.8770
2023-05-14T01:56:01.053Z,955.8785
2023-05-14T01:57:02.939Z,955.8738
2023-05-14T01:58:04.738Z,955.8762
2023-05-14T01:59:06.574Z,955.8770
2023-05-14T02:00:08.419Z,955.8746
2023-05-14T02:01:10.289Z,955.8777
2023-05-14T02:02:13.048Z,955.8738
2023-05-14T02:03:14.003Z,955.8708
2023-05-14T02:04:15.855Z,955.8677
2023-05-14T02:05:25.162Z,955.8661
2023-05-14T02:06:19.437Z,955.8600
2023-05-14T02:07:21.288Z,955.8553
2023-05-14T02:08:23.147Z,955.8469
2023-05-14T02:09:24.987Z,955.8377
2023-05-14T02:10:34.379Z,955.8400
2023-05-14T02:11:28.681Z,955.8334
2023-05-14T02:12:30.490Z,955.8239
2023-05-14T02:13:32.336Z,955.8215
2023-05-14T02:14:34.192Z,955.8115
2023-05-14T02:15:36.076Z,955.8154
2023-05-14T02:16:37.844Z,955.7969
2023-05-14T02:17:39.733Z,955.8038
2023-05-14T02:18:41.592Z,955.7961
2023-05-14T02:19:43.363Z,955.7908
2023-05-14T02:20:45.196Z,955.7900
2023-05-14T02:21:47.050Z,955.7908
2023-05-14T02:22:48.889Z,955.7908
2023-05-14T02:23:50.730Z,955.7938
2023-05-14T02:24:52.575Z,955.8054
2023-05-14T02:25:54.415Z,955.7985
2023-05-14T02:26:56.234Z,955.8023
2023-05-14T02:27:58.084Z,955.7923
2023-05-14T02:28:59.926Z,955.7854
2023-05-14T02:30:01.795Z,955.7739
2023-05-14T02:31:03.652Z,955.7577
2023-05-14T02:32:05.510Z,955.7531
2023-05-14T02:33:07.418Z,955.7369
2023-05-14T02:34:09.117Z,955.7208
2023-05-14T02:35:10.962Z,955.7131
2023-05-14T02:36:12.802Z,955.7039
2023-05-14T02:37:14.628Z,955.7108
2023-05-14T02:38:16.491Z,955.7054
2023-05-14T02:39:18.334Z,955.6877
2023-05-14T02:40:20.158Z,955.6785
2023-05-14T02:41:21.979Z,955.6761
2023-05-14T02:42:23.826Z,955.6677
2023-05-14T02:43:25.663Z,955.6685
2023-05-14T02:44:27.520Z,955.6730
2023-05-14T02:45:29.337Z,955.6669
2023-05-14T02:46:31.295Z,955.6669
2023-05-14T02:47:33.142Z,955.6653
2023-05-14T02:48:34.921Z,955.6685
2023-05-14T02:49:36.767Z,955.6692
2023-05-14T02:50:38.607Z,955.6653
2023-05-14T02:51:40.430Z,955.6546
2023-05-14T02:52:42.271Z,955.6500
2023-05-14T02:53:44.120Z,955.6531
2023-05-14T02:54:45.951Z,955.6477
2023-05-14T02:55:47.801Z,955.6516
2023-05-14T02:56:49.636Z,955.6431
2023-05-14T02:57:51.454Z,955.6415
2023-05-14T02:58:53.303Z,955.6415
2023-05-14T02:59:55.136Z,955.6408
2023-05-14T03:00:57.003Z,955.6439
2023-05-14T03:01:58.873Z,955.6615
2023-05-14T03:03:00.709Z,955.6561
2023-05-14T03:04:02.472Z,955.6500
2023-05-14T03:05:04.324Z,955.6462
2023-05-14T03:06:06.153Z,955.6370
2023-05-14T03:07:07.990Z,955.6146
2023-05-14T03:08:09.851Z,955.6069
2023-05-14T03:09:11.657Z,955.6115
2023-05-14T03:10:13.508Z,955.6130
2023-05-14T03:11:15.345Z,955.6115
2023-05-14T03:12:17.174Z,955.6008
2023-05-14T03:13:19.015Z,955.5916
2023-05-14T03:14:20.872Z,955.5785
2023-05-14T03:15:22.681Z,955.5608
2023-05-14T03:16:24.546Z,955.5538
2023-05-14T03:17:26.366Z,955.5415
2023-05-14T03:18:28.228Z,955.5323
2023-05-14T03:19:30.044Z,955.5316
2023-05-14T03:20:31.876Z,955.5177
2023-05-14T03:21:33.688Z,955.5123
2023-05-14T03:22:35.528Z,955.5200
2023-05-14T03:23:37.397Z,955.5192
2023-05-14T03:24:39.215Z,955.5223
2023-05-14T03:25:41.056Z,955.5192
2023-05-14T03:26:42.938Z,955.5177
2023-05-14T03:27:44.724Z,955.5108
2023-05-14T03:28:46.552Z,955.5062
2023-05-14T03:29:48.378Z,955.5085
2023-05-14T03:30:50.245Z,955.5108
2023-05-14T03:31:52.068Z,955.5062
2023-05-14T03:32:53.961Z,955.5023
2023-05-14T03:33:55.724Z,955.5077
2023-05-14T03:34:57.559Z,955.5046
2023-05-14T03:35:59.402Z,955.5000
2023-05-14T03:37:01.247Z,955.4962
2023-05-14T03:38:03.080Z,955.4908
2023-05-14T03:39:04.957Z,955.4892
2023-05-14T03:40:06.750Z,955.4877
2023-05-14T03:41:08.579Z,955.4877
2023-05-14T03:42:10.409Z,955.4854
2023-05-14T03:43:12.271Z,955.4808
2023-05-14T03:44:14.107Z,955.4908
2023-05-14T03:45:15.979Z,955.5015
2023-05-14T03:46:17.771Z,955.5070
2023-05-14T03:47:19.607Z,955.5108
2023-05-14T03:48:21.536Z,955.5146
2023-05-14T03:49:23.294Z,955.5154
2023-05-14T03:50:25.354Z,955.5031
2023-05-14T03:51:26.977Z,955.5038
2023-05-14T03:52:28.799Z,955.4977
2023-05-14T03:53:30.646Z,955.4861
2023-05-14T03:54:32.488Z,955.4777
2023-05-14T03:55:34.321Z,955.4700
2023-05-14T03:56:36.172Z,955.4623
2023-05-14T03:57:38.040Z,955.4570
2023-05-14T03:58:39.844Z,955.4600
2023-05-14T03:59:41.701Z,955.4623
2023-05-14T04:00:43.546Z,955.4753
2023-05-14T04:01:45.371Z,955.4946
2023-05-14T04:02:47.311Z,955.5008
2023-05-14T04:03:49.211Z,955.5062
2023-05-14T04:04:50.935Z,955.5031
2023-05-14T04:05:52.734Z,955.5038
2023-05-14T04:06:54.578Z,955.5031
2023-05-14T04:07:56.407Z,955.5115
2023-05-14T04:08:58.251Z,955.5200
2023-05-14T04:10:01.793Z,955.5262
2023-05-14T04:11:01.942Z,955.5308
2023-05-14T04:12:03.788Z,955.5292
2023-05-14T04:13:05.622Z,955.5316
2023-05-14T04:14:07.460Z,955.5339
2023-05-14T04:15:09.288Z,955.5308
2023-05-14T04:16:11.180Z,955.5262
2023-05-14T04:17:12.977Z,955.5254
2023-05-14T04:18:14.849Z,955.5254
2023-05-14T04:19:16.749Z,955.5346
2023-05-14T04:20:18.482Z,955.5331
2023-05-14T04:21:20.314Z,955.5285
2023-05-14T04:22:22.175Z,955.5192
2023-05-14T04:23:23.979Z,955.5247
2023-05-14T04:24:25.810Z,955.5185
2023-05-14T04:25:27.648Z,955.5123
2023-05-14T04:26:29.487Z,955.5192
2023-05-14T04:27:31.341Z,955.5208
2023-05-14T04:28:33.201Z,955.5339
2023-05-14T04:29:35.008Z,955.5377
2023-05-14T04:30:36.846Z,955.5408
2023-05-14T04:31:38.708Z,955.5477
2023-05-14T04:32:40.577Z,955.5461
2023-05-14T04:33:42.364Z,955.5461
2023-05-14T04:34:44.221Z,955.5530
2023-05-14T04:35:46.038Z,955.5530
2023-05-14T04:36:47.872Z,955.5569
2023-05-14T04:37:49.717Z,955.5569
2023-05-14T04:38:51.568Z,955.5592
2023-05-14T04:39:53.392Z,955.5677
2023-05-14T04:40:55.252Z,955.5685
2023-05-14T04:41:57.067Z,955.5615
2023-05-14T04:42:58.903Z,955.5708
2023-05-14T04:44:00.729Z,955.5677
2023-05-14T04:45:02.595Z,955.5692
2023-05-14T04:46:04.453Z,955.5646
2023-05-14T04:47:06.267Z,955.5662
2023-05-14T04:48:08.136Z,955.5623
2023-05-14T04:49:09.924Z,955.5554
2023-05-14T04:50:11.767Z,955.5554
2023-05-14T04:51:13.593Z,955.5646
2023-05-14T04:52:15.449Z,955.5670
2023-05-14T04:53:17.306Z,955.5808
2023-05-14T04:54:19.156Z,955.5815
2023-05-14T04:55:20.966Z,955.5877
2023-05-14T04:56:22.807Z,955.6015
2023-05-14T04:57:24.629Z,955.6092
2023-05-14T04:58:26.476Z,955.6108
2023-05-14T04:59:28.346Z,955.6185
2023-05-14T05:00:30.170Z,955.6192
2023-05-14T05:01:32.028Z,955.6270
2023-05-14T05:02:33.877Z,955.6339
2023-05-14T05:03:35.690Z,955.6308
2023-05-14T05:04:37.496Z,955.6308
2023-05-14T05:05:39.373Z,955.6270
2023-05-14T05:06:41.214Z,955.6230
2023-05-14T05:07:43.016Z,955.6223
2023-05-14T05:08:44.852Z,955.6238
2023-05-14T05:09:46.687Z,955.6146
2023-05-14T05:10:48.553Z,955.6061
2023-05-14T05:11:50.406Z,955.5977
2023-05-14T05:12:52.226Z,955.5969
2023-05-14T05:13:54.045Z,955.5961
2023-05-14T05:14:55.881Z,955.6100
2023-05-14T05:15:57.755Z,955.6277
2023-05-14T05:16:59.569Z,955.6400
2023-05-14T05:18:01.441Z,955.6539
2023-05-14T05:19:03.283Z,955.6516
2023-05-14T05:20:05.070Z,955.6600
2023-05-14T05:21:06.920Z,955.6661
2023-05-14T05:22:08.754Z,955.6730
2023-05-14T05:23:10.575Z,955.6746
2023-05-14T05:24:12.441Z,955.6708
2023-05-14T05:25:14.251Z,955.6653
2023-05-14T05:26:16.107Z,955.6592
2023-05-14T05:27:17.934Z,955.6600
2023-05-14T05:28:19.770Z,955.6623
2023-05-14T05:29:21.594Z,955.6646
2023-05-14T05:30:23.680Z,955.6638
2023-05-14T05:31:25.417Z,955.6631
2023-05-14T05:32:27.113Z,955.6623
2023-05-14T05:33:28.958Z,955.6708
2023-05-14T05:34:30.783Z,955.6616
2023-05-14T05:35:32.625Z,955.6608
2023-05-14T05:36:34.473Z,955.6447
2023-05-14T05:37:36.304Z,955.6285
2023-05-14T05:38:38.142Z,955.6192
2023-05-14T05:39:39.986Z,955.6192
2023-05-14T05:40:41.812Z,955.6192
2023-05-14T05:41:43.653Z,955.6208
2023-05-14T05:42:45.518Z,955.6185
2023-05-14T05:43:47.340Z,955.6185
2023-05-14T05:44:49.176Z,955.6161
2023-05-14T05:45:51.046Z,955.6215
2023-05-14T05:46:52.916Z,955.6215
2023-05-14T05:47:54.719Z,955.6023
2023-05-14T05:48:56.547Z,955.5939
2023-05-14T05:49:58.368Z,955.5862
2023-05-14T05:51:00.212Z,955.5916
2023-05-14T05:52:02.033Z,955.5892
2023-05-14T05:53:03.899Z,955.5916
2023-05-14T05:54:05.735Z,955.5831
2023-05-14T05:55:07.596Z,955.5831
2023-05-14T05:56:09.413Z,955.5792
2023-05-14T05:57:11.260Z,955.5715
2023-05-14T05:58:13.101Z,955.5723
2023-05-14T05:59:14.937Z,955.5700
2023-05-14T06:00:16.761Z,955.5762
2023-05-14T06:01:18.647Z,955.5854
2023-05-14T06:02:20.491Z,955.5954
2023-05-14T06:03:22.376Z,955.6015
2023-05-14T06:04:24.141Z,955.6053
2023-05-14T06:05:25.989Z,955.6046
2023-05-14T06:06:27.805Z,955.6100
2023-05-14T06:07:29.697Z,955.6077
2023-05-14T06:08:31.495Z,955.6115
2023-05-14T06:09:33.342Z,955.6115
2023-05-14T06:10:35.184Z,955.6177
2023-05-14T06:11:37.033Z,955.6177
2023-05-14T06:12:38.866Z,955.6300
2023-05-14T06:13:40.704Z,955.6285
2023-05-14T06:14:42.550Z,955.6408
2023-05-14T06:15:44.369Z,955.6385
2023-05-14T06:16:46.216Z,955.6230
2023-05-14T06:17:48.090Z,955.6315
2023-05-14T06:18:49.945Z,955.6270
2023-05-14T06:19:51.752Z,955.6277
2023-05-14T06:20:53.578Z,955.6323
2023-05-14T06:21:55.427Z,955.6508
2023-05-14T06:22:57.265Z,955.6546
2023-05-14T06:23:59.111Z,955.6730
2023-05-14T06:25:00.965Z,955.6830
2023-05-14T06:26:02.813Z,955.6900
2023-05-14T06:27:04.622Z,955.6962
2023-05-14T06:28:06.470Z,955.7023
2023-05-14T06:29:08.321Z,955.6977
2023-05-14T06:30:10.160Z,955.6985
2023-05-14T06:31:11.993Z,955.6985
2023-05-14T06:32:13.999Z,955.6985
2023-05-14T06:33:15.661Z,955.7000
2023-05-14T06:34:17.519Z,955.6938
2023-05-14T06:35:19.354Z,955.6908
2023-05-14T06:36:21.192Z,955.6838
2023-05-14T06:37:23.012Z,955.6838
2023-05-14T06:38:24.864Z,955.6785
2023-05-14T06:39:26.690Z,955.6800
2023-05-14T06:40:28.560Z,955.6646
2023-05-14T06:41:30.391Z,955.6746
2023-05-14T06:42:32.204Z,955.6653
2023-05-14T06:43:34.043Z,955.6700
2023-05-14T06:44:35.899Z,955.6623
2023-05-14T06:45:37.742Z,955.6615
2023-05-14T06:46:39.567Z,955.6584
2023-05-14T06:47:41.491Z,955.6615
2023-05-14T06:48:43.283Z,955.6492
2023-05-14T06:49:45.160Z,955.6516
2023-05-14T06:50:47.029Z,955.6439
2023-05-14T06:51:48.830Z,955.6638
2023-05-14T06:52:50.677Z,955.6646
2023-05-14T06:53:52.527Z,955.6646
2023-05-14T06:54:54.364Z,955.6746
2023-05-14T06:55:56.210Z,955.6808
2023-05-14T06:56:58.060Z,955.6815
2023-05-14T06:57:59.882Z,955.6792
2023-05-14T06:59:01.729Z,955.6792
2023-05-14T07:00:03.905Z,955.6830
2023-05-14T07:01:05.438Z,955.6846
2023-05-14T07:02:07.269Z,955.6761
2023-05-14T07:03:09.214Z,955.6815
2023-05-14T07:04:11.009Z,955.6823
2023-05-14T07:05:12.778Z,955.6715
2023-05-14T07:06:14.612Z,955.6685
2023-05-14T07:07:16.460Z,955.6723
2023-05-14T07:08:18.312Z,955.6938
2023-05-14T07:09:20.175Z,955.7070
2023-05-14T07:10:22.292Z,955.7077
2023-05-14T07:11:23.816Z,955.7131
2023-05-14T07:12:25.654Z,955.7177
2023-05-14T07:13:28.631Z,955.7246
2023-05-14T07:14:29.346Z,955.7177
2023-05-14T07:15:31.215Z,955.7169
2023-05-14T07:16:33.039Z,955.7039
2023-05-14T07:17:34.883Z,955.6962
2023-05-14T07:18:36.741Z,955.6870
2023-05-14T07:19:38.545Z,955.6862
2023-05-14T07:20:40.379Z,955.6830
2023-05-14T07:21:42.240Z,955.6823
2023-05-14T07:22:44.053Z,955.6730
2023-05-14T07:23:45.917Z,955.6669
2023-05-14T07:24:47.745Z,955.6646
2023-05-14T07:25:49.582Z,955.6554
2023-05-14T07:26:51.429Z,955.6500
2023-05-14T07:27:53.268Z,955.6331
2023-05-14T07:28:55.111Z,955.6223
2023-05-14T07:29:56.927Z,955.6300
2023-05-14T07:30:58.805Z,955.6238
2023-05-14T07:32:00.624Z,955.6230
2023-05-14T07:33:02.497Z,955.6270
2023-05-14T07:34:04.426Z,955.6185
2023-05-14T07:35:06.148Z,955.6246
2023-05-14T07:36:07.965Z,955.6169
2023-05-14T07:37:09.804Z,955.6085
2023-05-14T07:38:11.661Z,955.6008
2023-05-14T07:39:13.502Z,955.5931
2023-05-14T07:40:15.374Z,955.5839
2023-05-14T07:41:17.182Z,955.5785
2023-05-14T07:42:31.734Z,955.5870
2023-05-14T07:43:21.858Z,955.5869
2023-05-14T07:44:22.682Z,955.5885
2023-05-14T07:45:24.522Z,955.5923
2023-05-14T07:46:26.398Z,955.5908
2023-05-14T07:47:28.317Z,955.5900
2023-05-14T07:48:30.081Z,955.5862
2023-05-14T07:49:31.880Z,955.5823
2023-05-14T07:50:33.745Z,955.5777
2023-05-14T07:51:35.569Z,955.5754
2023-05-14T07:52:37.438Z,955.5739
2023-05-14T07:53:39.264Z,955.5739
2023-05-14T07:54:41.086Z,955.5700
2023-05-14T07:55:42.939Z,955.5723
2023-05-14T07:56:44.779Z,955.5700
2023-05-14T07:57:46.625Z,955.5638
2023-05-14T07:58:48.500Z,955.5577
2023-05-14T07:59:50.315Z,955.5492
2023-05-14T08:00:52.131Z,955.5430
2023-05-14T08:01:53.990Z,955.5469
2023-05-14T08:02:56.037Z,955.5461
2023-05-14T08:03:57.699Z,955.5615
2023-05-14T08:04:59.526Z,955.5569
2023-05-14T08:06:01.334Z,955.5530
2023-05-14T08:07:03.171Z,955.5477
2023-05-14T08:08:05.007Z,955.5523
2023-05-14T08:09:06.863Z,955.5453
2023-05-14T08:10:08.718Z,955.5385
2023-05-14T08:11:10.630Z,955.5292
2023-05-14T08:12:12.383Z,955.5385
2023-05-14T08:13:14.216Z,955.5369
2023-05-14T08:14:16.069Z,955.5339
2023-05-14T08:15:17.905Z,955.5285
2023-05-14T08:16:19.799Z,955.5354
2023-05-14T08:17:21.633Z,955.5385
2023-05-14T08:18:23.415Z,955.5308
2023-05-14T08:19:25.264Z,955.5192
2023-05-14T08:20:27.528Z,955.5077
2023-05-14T08:21:28.924Z,955.5146
2023-05-14T08:22:30.765Z,955.5046
2023-05-14T08:23:32.665Z,955.4923
2023-05-14T08:24:34.460Z,955.4938
2023-05-14T08:25:36.306Z,955.4877
2023-05-14T08:26:38.135Z,955.4815
2023-05-14T08:27:39.969Z,955.4738
2023-05-14T08:28:41.816Z,955.4569
2023-05-14T08:29:43.712Z,955.4462
2023-05-14T08:30:45.524Z,955.4415
2023-05-14T08:31:47.322Z,955.4438
2023-05-14T08:32:49.208Z,955.4431
2023-05-14T08:33:51.029Z,955.4354
2023-05-14T08:34:52.854Z,955.4362
2023-05-14T08:35:54.712Z,955.4385
2023-05-14T08:36:56.521Z,955.4423
2023-05-14T08:37:58.383Z,955.4470
2023-05-14T08:39:00.220Z,955.4515
2023-05-14T08:40:02.062Z,955.4592
2023-05-14T08:41:03.916Z,955.4638
2023-05-14T08:42:05.751Z,955.4585
2023-05-14T08:43:07.564Z,955.4646
2023-05-14T08:44:09.419Z,955.4592
2023-05-14T08:45:11.263Z,955.4562
2023-05-14T08:46:13.108Z,955.4523
2023-05-14T08:47:14.934Z,955.4492
2023-05-14T08:48:16.929Z,955.4392
2023-05-14T08:49:18.634Z,955.4238
2023-05-14T08:50:21.924Z,955.4300
2023-05-14T08:51:22.328Z,955.4215
2023-05-14T08:52:24.145Z,955.4223
2023-05-14T08:53:25.993Z,955.4115
2023-05-14T08:54:27.854Z,955.3923
2023-05-14T08:55:29.696Z,955.3754
2023-05-14T08:56:31.531Z,955.3608
2023-05-14T08:57:33.398Z,955.3615
2023-05-14T08:58:35.197Z,955.3416
2023-05-14T08:59:37.058Z,955.3177
2023-05-14T09:00:38.911Z,955.3239
2023-05-14T09:01:40.770Z,955.3062
2023-05-14T09:02:42.643Z,955.3085
2023-05-14T09:03:44.466Z,955.2931
2023-05-14T09:04:46.252Z,955.2946
2023-05-14T09:05:48.104Z,955.2908
2023-05-14T09:06:49.966Z,955.2769
2023-05-14T09:07:51.772Z,955.2554
2023-05-14T09:08:53.622Z,955.2423
2023-05-14T09:09:55.508Z,955.2192
2023-05-14T09:10:57.302Z,955.1777
2023-05-14T09:11:59.133Z,955.1746
2023-05-14T09:13:01.003Z,955.1846
2023-05-14T09:14:02.847Z,955.1908
2023-05-14T09:15:04.655Z,955.1977
2023-05-14T09:16:06.497Z,955.1923
2023-05-14T09:17:08.347Z,955.1908
2023-05-14T09:18:10.250Z,955.1962
2023-05-14T09:19:12.134Z,955.1938
2023-05-14T09:20:13.877Z,955.1862
2023-05-14T09:21:15.715Z,955.1838
2023-05-14T09:22:17.562Z,955.1877
2023-05-14T09:23:19.379Z,955.1931
2023-05-14T09:24:21.224Z,955.2054
2023-05-14T09:25:23.098Z,955.2015
2023-05-14T09:26:24.904Z,955.1870
2023-05-14T09:27:26.746Z,955.1838
2023-05-14T09:28:28.596Z,955.1946
2023-05-14T09:29:30.431Z,955.1885
2023-05-14T09:30:32.281Z,955.1854
2023-05-14T09:31:34.200Z,955.1761
2023-05-14T09:32:36.014Z,955.1653
2023-05-14T09:33:37.791Z,955.1623
2023-05-14T09:34:39.632Z,955.1447
2023-05-14T09:35:41.474Z,955.1300
2023-05-14T09:36:43.309Z,955.1270
2023-05-14T09:37:45.138Z,955.1185
2023-05-14T09:38:46.988Z,955.1223
2023-05-14T09:39:48.821Z,955.1161
2023-05-14T09:40:50.663Z,955.1208
2023-05-14T09:41:52.484Z,955.1185
2023-05-14T09:42:54.352Z,955.1100
2023-05-14T09:43:56.160Z,955.1077
2023-05-14T09:44:58.008Z,955.1053
2023-05-14T09:45:59.856Z,955.0862
2023-05-14T09:47:01.692Z,955.0916
2023-05-14T09:48:03.642Z,955.0831
2023-05-14T09:49:05.392Z,955.0984
2023-05-14T09:50:07.208Z,955.0939
2023-05-14T09:51:09.041Z,955.0762
2023-05-14T09:52:10.860Z,955.0847
2023-05-14T09:53:12.692Z,955.0770
2023-05-14T09:54:14.532Z,955.0731
2023-05-14T09:55:16.412Z,955.0869
2023-05-14T09:56:18.222Z,955.0839
2023-05-14T09:57:20.056Z,955.0916
2023-05-14T09:58:21.883Z,955.0984
2023-05-14T09:59:23.715Z,955.0877
2023-05-14T10:00:25.799Z,955.0884
2023-05-14T10:01:27.444Z,955.0954
2023-05-14T10:02:29.272Z,955.0892
2023-05-14T10:03:31.061Z,955.0931
2023-05-14T10:04:33.015Z,955.0815
2023-05-14T10:05:34.750Z,955.0692
2023-05-14T10:06:36.572Z,955.0692
2023-05-14T10:07:38.460Z,955.0692
2023-05-14T10:08:40.353Z,955.0723
2023-05-14T10:09:42.102Z,955.0662
2023-05-14T10:10:43.938Z,955.0608
2023-05-14T10:11:45.774Z,955.0546
2023-05-14T10:12:47.600Z,955.0400
2023-05-14T10:13:49.470Z,955.0223
2023-05-14T10:14:51.291Z,955.0170
2023-05-14T10:15:53.124Z,955.0262
2023-05-14T10:16:54.980Z,955.0046
2023-05-14T10:17:56.812Z,955.0077
2023-05-14T10:18:58.670Z,955.0200
2023-05-14T10:20:00.492Z,955.0100
2023-05-14T10:21:02.308Z,955.0054
2023-05-14T10:22:04.244Z,955.0023
2023-05-14T10:23:05.960Z,954.9892
2023-05-14T10:24:07.809Z,954.9946
2023-05-14T10:25:09.653Z,955.0062
2023-05-14T10:26:11.494Z,955.0154
2023-05-14T10:27:13.317Z,954.9985
2023-05-14T10:28:15.146Z,954.9938
2023-05-14T10:29:16.968Z,954.9923
2023-05-14T10:30:18.940Z,954.9869
2023-05-14T10:31:20.710Z,954.9769
2023-05-14T10:32:22.482Z,954.9708
2023-05-14T10:33:24.324Z,954.9539
2023-05-14T10:34:26.167Z,954.9500
2023-05-14T10:35:28.014Z,954.9385
2023-05-14T10:36:29.845Z,954.9377
2023-05-14T10:37:31.687Z,954.9354
2023-05-14T10:38:33.505Z,954.9277
2023-05-14T10:39:35.346Z,954.9308
2023-05-14T10:40:37.182Z,954.9300
2023-05-14T10:41:39.020Z,954.9323
2023-05-14T10:42:40.891Z,954.9323
2023-05-14T10:43:42.734Z,954.9362
2023-05-14T10:44:44.519Z,954.9415
2023-05-14T10:45:46.372Z,954.9454
2023-05-14T10:46:48.275Z,954.9454
2023-05-14T10:47:50.055Z,954.9477
2023-05-14T10:48:51.870Z,954.9300
2023-05-14T10:49:53.740Z,954.9261
2023-05-14T10:50:55.588Z,954.9215
2023-05-14T10:51:57.397Z,954.9077
2023-05-14T10:52:59.311Z,954.8908
2023-05-14T10:54:01.129Z,954.8885
2023-05-14T10:55:03.845Z,954.8770
2023-05-14T10:56:04.845Z,954.8569
2023-05-14T10:57:06.651Z,954.8461
2023-05-14T10:58:08.487Z,954.8300
2023-05-14T10:59:10.311Z,954.7977
2023-05-14T11:00:12.144Z,954.7777
2023-05-14T11:01:14.001Z,954.7608
2023-05-14T11:02:16.050Z,954.7385
2023-05-14T11:03:17.698Z,954.7261
2023-05-14T11:04:19.637Z,954.7238
2023-05-14T11:05:21.335Z,954.7200
2023-05-14T11:06:23.181Z,954.7192
2023-05-14T11:07:25.023Z,954.7047
2023-05-14T11:08:28.064Z,954.6862
2023-05-14T11:09:28.692Z,954.6754
2023-05-14T11:10:30.516Z,954.6646
2023-05-14T11:11:32.362Z,954.6477
2023-05-14T11:12:34.204Z,954.6254
2023-05-14T11:13:36.033Z,954.5992
2023-05-14T11:14:37.891Z,954.5800
2023-05-14T11:15:39.711Z,954.5630
2023-05-14T11:16:41.563Z,954.5792
2023-05-14T11:17:43.464Z,954.5807
2023-05-14T11:18:45.249Z,954.5754
2023-05-14T11:19:48.343Z,954.5638
2023-05-14T11:20:48.924Z,954.5608
2023-05-14T11:21:50.781Z,954.5530
2023-05-14T11:22:52.571Z,954.5562
2023-05-14T11:23:54.397Z,954.5477
2023-05-14T11:24:56.230Z,954.5469
2023-05-14T11:25:58.112Z,954.5377
2023-05-14T11:26:59.928Z,954.5346
2023-05-14T11:28:01.761Z,954.5385
2023-05-14T11:29:03.606Z,954.5415
2023-05-14T11:30:05.423Z,954.5331
2023-05-14T11:31:07.265Z,954.5308
2023-05-14T11:32:09.210Z,954.5154
2023-05-14T11:33:11.011Z,954.5062
2023-05-14T11:34:12.818Z,954.4908
2023-05-14T11:35:14.630Z,954.4761
2023-05-14T11:36:16.453Z,954.4753
2023-05-14T11:37:18.287Z,954.4661
2023-05-14T11:38:20.129Z,954.4454
2023-05-14T11:39:21.969Z,954.4408
2023-05-14T11:40:23.931Z,954.4238
2023-05-14T11:41:25.630Z,954.4200
2023-05-14T11:42:27.469Z,954.4323
2023-05-14T11:43:29.477Z,954.4338
2023-05-14T11:44:31.172Z,954.4415
2023-05-14T11:45:33.006Z,954.4370
2023-05-14T11:46:34.965Z,954.4246
2023-05-14T11:47:36.730Z,954.4177
2023-05-14T11:48:38.519Z,954.4200
2023-05-14T11:49:40.347Z,954.4016
2023-05-14T11:50:42.181Z,954.3962
2023-05-14T11:51:44.007Z,954.3923
2023-05-14T11:52:45.883Z,954.3738
2023-05-14T11:53:47.693Z,954.3808
2023-05-14T11:54:49.546Z,954.3692
2023-05-14T11:55:51.371Z,954.3677
2023-05-14T11:56:53.195Z,954.3669
2023-05-14T11:57:55.051Z,954.3553
2023-05-14T11:58:56.940Z,954.3500
2023-05-14T11:59:58.732Z,954.3362
2023-05-14T12:01:00.556Z,954.3339
2023-05-14T12:02:02.452Z,954.3416
2023-05-14T12:03:04.384Z,954.3369
2023-05-14T12:04:06.178Z,954.3285
2023-05-14T12:05:07.942Z,954.3123
2023-05-14T12:06:09.745Z,954.3231